createdAt,value
2017-04-03T00:00:02.255Z,101274
2017-04-03T00:01:02.267Z,101275
2017-04-03T00:02:01.793Z,101273
2017-04-03T00:03:02.381Z,101273
2017-04-03T00:04:02.465Z,101273
2017-04-03T00:05:01.965Z,101271
2017-04-03T00:06:02.527Z,101270
2017-04-03T00:07:01.989Z,101263
2017-04-03T00:08:02.093Z,101263
2017-04-03T00:09:02.240Z,101263
2017-04-03T00:10:02.190Z,101269
2017-04-03T00:11:02.286Z,101267
2017-04-03T00:12:02.892Z,101262
2017-04-03T00:13:02.379Z,101268
2017-04-03T00:14:02.526Z,101272
2017-04-03T00:15:02.473Z,101272
2017-04-03T00:16:03.096Z,101273
2017-04-03T00:17:02.666Z,101271
2017-04-03T00:18:02.661Z,101272
2017-04-03T00:19:03.193Z,101274
2017-04-03T00:20:02.766Z,101273
2017-04-03T00:21:02.971Z,101273
2017-04-03T00:22:02.915Z,101265
2017-04-03T00:23:02.877Z,101270
2017-04-03T00:24:03.447Z,101268
2017-04-03T00:25:03.556Z,101270
2017-04-03T00:26:03.611Z,101268
2017-04-03T00:27:03.419Z,101268
2017-04-03T00:28:03.180Z,101268
2017-04-03T00:29:03.204Z,101269
2017-04-03T00:30:03.249Z,101270
2017-04-03T00:31:03.751Z,101270
2017-04-03T00:33:03.437Z,101265
2017-04-03T00:34:03.946Z,101270
2017-04-03T00:35:03.465Z,101266
2017-04-03T00:36:03.985Z,101267
2017-04-03T00:37:04.032Z,101267
2017-04-03T00:38:04.219Z,101269
2017-04-03T00:39:04.105Z,101263
2017-04-03T00:40:03.616Z,101264
2017-04-03T00:41:04.228Z,101267
2017-04-03T00:42:04.273Z,101267
2017-04-03T00:43:04.019Z,101269
2017-04-03T00:44:03.835Z,101262
2017-04-03T00:45:03.884Z,101264
2017-04-03T00:46:03.892Z,101263
2017-04-03T00:47:03.977Z,101270
2017-04-03T00:48:03.941Z,101273
2017-04-03T00:49:04.865Z,101273
2017-04-03T00:50:04.669Z,101270
2017-04-03T00:51:04.216Z,101271
2017-04-03T00:52:04.298Z,101270
2017-04-03T00:53:04.795Z,101272
2017-04-03T00:54:04.884Z,101274
2017-04-03T00:55:04.579Z,101274
2017-04-03T00:56:04.425Z,101273
2017-04-03T00:57:04.558Z,101278
2017-04-03T00:58:04.604Z,101277
2017-04-03T00:59:05.149Z,101279
2017-04-03T01:00:05.171Z,101277
2017-04-03T01:01:04.878Z,101279
2017-04-03T01:02:05.320Z,101282
2017-04-03T01:03:05.294Z,101277
2017-04-03T01:04:04.872Z,101274
2017-04-03T01:05:04.957Z,101278
2017-04-03T01:06:05.510Z,101278
2017-04-03T01:07:05.205Z,101273
2017-04-03T01:08:05.599Z,101274
2017-04-03T01:09:05.620Z,101276
2017-04-03T01:10:05.185Z,101275
2017-04-03T01:11:05.275Z,101281
2017-04-03T01:12:05.809Z,101279
2017-04-03T01:13:06.678Z,101277
2017-04-03T01:14:05.432Z,101279
2017-04-03T01:15:06.057Z,101281
2017-04-03T01:16:06.108Z,101281
2017-04-03T01:17:06.141Z,101280
2017-04-03T01:18:06.218Z,101280
2017-04-03T01:19:06.108Z,101275
2017-04-03T01:20:06.327Z,101282
2017-04-03T01:21:06.308Z,101281
2017-04-03T01:22:06.342Z,101277
2017-04-03T01:23:05.830Z,101278
2017-04-03T01:24:05.856Z,101280
2017-04-03T01:25:06.040Z,101280
2017-04-03T01:26:06.408Z,101276
2017-04-03T01:27:05.921Z,101275
2017-04-03T01:28:05.967Z,101282
2017-04-03T01:29:06.516Z,101287
2017-04-03T01:30:06.044Z,101287
2017-04-03T01:31:06.807Z,101284
2017-04-03T01:32:06.670Z,101282
2017-04-03T01:33:06.141Z,101281
2017-04-03T01:34:06.687Z,101286
2017-04-03T01:35:06.756Z,101284
2017-04-03T01:36:06.277Z,101280
2017-04-03T01:37:06.696Z,101290
2017-04-03T01:38:06.402Z,101288
2017-04-03T01:39:06.455Z,101281
2017-04-03T01:40:07.044Z,101279
2017-04-03T01:41:07.097Z,101282
2017-04-03T01:42:07.159Z,101282
2017-04-03T01:43:06.882Z,101284
2017-04-03T01:44:07.379Z,101285
2017-04-03T01:45:07.344Z,101293
2017-04-03T01:46:07.399Z,101292
2017-04-03T01:47:07.508Z,101298
2017-04-03T01:48:07.029Z,101300
2017-04-03T01:49:07.776Z,101298
2017-04-03T01:50:07.142Z,101301
2017-04-03T01:51:07.723Z,101303
2017-04-03T01:52:07.250Z,101301
2017-04-03T01:53:07.219Z,101303
2017-04-03T01:54:07.779Z,101302
2017-04-03T01:55:07.413Z,101297
2017-04-03T01:56:07.851Z,101297
2017-04-03T01:57:07.364Z,101297
2017-04-03T01:58:07.322Z,101296
2017-04-03T01:59:07.454Z,101299
2017-04-03T02:00:08.056Z,101299
2017-04-03T02:01:08.259Z,101289
2017-04-03T02:02:08.142Z,101298
2017-04-03T02:03:07.697Z,101303
2017-04-03T02:04:07.732Z,101299
2017-04-03T02:05:08.351Z,101298
2017-04-03T02:06:08.332Z,101300
2017-04-03T02:07:07.850Z,101302
2017-04-03T02:08:07.869Z,101303
2017-04-03T02:09:08.455Z,101303
2017-04-03T02:10:08.547Z,101303
2017-04-03T02:11:08.554Z,101305
2017-04-03T02:12:08.622Z,101305
2017-04-03T02:13:08.685Z,101304
2017-04-03T02:14:08.725Z,101307
2017-04-03T02:15:08.764Z,101306
2017-04-03T02:16:08.856Z,101309
2017-04-03T02:17:08.918Z,101308
2017-04-03T02:18:08.437Z,101311
2017-04-03T02:19:08.439Z,101311
2017-04-03T02:20:08.438Z,101306
2017-04-03T02:21:09.076Z,101306
2017-04-03T02:22:08.631Z,101306
2017-04-03T02:23:09.256Z,101305
2017-04-03T02:24:09.481Z,101306
2017-04-03T02:25:09.400Z,101306
2017-04-03T02:26:09.468Z,101309
2017-04-03T02:27:09.499Z,101312
2017-04-03T02:28:09.572Z,101307
2017-04-03T02:29:09.664Z,101308
2017-04-03T02:30:09.277Z,101308
2017-04-03T02:31:09.724Z,101308
2017-04-03T02:32:09.798Z,101308
2017-04-03T02:33:09.307Z,101309
2017-04-03T02:34:09.861Z,101309
2017-04-03T02:35:09.854Z,101315
2017-04-03T02:36:10.204Z,101312
2017-04-03T02:37:09.922Z,101313
2017-04-03T02:38:09.475Z,101308
2017-04-03T02:39:09.482Z,101306
2017-04-03T02:40:09.530Z,101302
2017-04-03T02:41:10.075Z,101306
2017-04-03T02:42:09.755Z,101308
2017-04-03T02:43:10.187Z,101307
2017-04-03T02:44:10.238Z,101314
2017-04-03T02:45:09.788Z,101315
2017-04-03T02:46:09.759Z,101317
2017-04-03T02:47:10.545Z,101316
2017-04-03T02:48:10.411Z,101313
2017-04-03T02:49:10.427Z,101316
2017-04-03T02:50:09.992Z,101318
2017-04-03T02:51:10.565Z,101323
2017-04-03T02:52:10.100Z,101321
2017-04-03T02:53:10.297Z,101322
2017-04-03T02:54:10.242Z,101318
2017-04-03T02:55:10.827Z,101321
2017-04-03T02:56:10.881Z,101324
2017-04-03T02:57:10.853Z,101320
2017-04-03T02:58:10.954Z,101316
2017-04-03T02:59:10.653Z,101324
2017-04-03T03:00:11.011Z,101325
2017-04-03T03:01:11.117Z,101323
2017-04-03T03:02:10.625Z,101321
2017-04-03T03:03:11.188Z,101324
2017-04-03T03:04:11.260Z,101322
2017-04-03T03:05:10.934Z,101320
2017-04-03T03:06:10.880Z,101321
2017-04-03T03:07:10.824Z,101316
2017-04-03T03:08:10.909Z,101319
2017-04-03T03:09:10.990Z,101318
2017-04-03T03:10:10.967Z,101322
2017-04-03T03:11:11.738Z,101319
2017-04-03T03:12:11.037Z,101321
2017-04-03T03:13:11.659Z,101322
2017-04-03T03:14:11.686Z,101321
2017-04-03T03:15:11.701Z,101316
2017-04-03T03:16:11.254Z,101323
2017-04-03T03:17:11.514Z,101320
2017-04-03T03:18:11.969Z,101321
2017-04-03T03:19:11.474Z,101320
2017-04-03T03:20:12.141Z,101321
2017-04-03T03:21:11.678Z,101320
2017-04-03T03:22:12.302Z,101317
2017-04-03T03:23:11.959Z,101323
2017-04-03T03:24:11.855Z,101321
2017-04-03T03:25:12.390Z,101324
2017-04-03T03:26:12.459Z,101327
2017-04-03T03:27:12.535Z,101319
2017-04-03T03:28:12.561Z,101324
2017-04-03T03:29:12.822Z,101326
2017-04-03T03:30:12.091Z,101330
2017-04-03T03:31:12.655Z,101324
2017-04-03T03:32:12.739Z,101323
2017-04-03T03:33:12.289Z,101320
2017-04-03T03:34:12.878Z,101325
2017-04-03T03:35:12.485Z,101327
2017-04-03T03:36:12.955Z,101329
2017-04-03T03:37:12.431Z,101335
2017-04-03T03:38:13.100Z,101331
2017-04-03T03:39:13.109Z,101331
2017-04-03T03:40:13.098Z,101328
2017-04-03T03:41:12.993Z,101326
2017-04-03T03:42:13.290Z,101324
2017-04-03T03:43:13.338Z,101325
2017-04-03T03:44:12.849Z,101333
2017-04-03T03:45:13.010Z,101329
2017-04-03T03:46:13.023Z,101330
2017-04-03T03:47:13.756Z,101330
2017-04-03T03:48:13.140Z,101328
2017-04-03T03:49:13.755Z,101325
2017-04-03T03:50:13.795Z,101335
2017-04-03T03:51:13.852Z,101333
2017-04-03T03:52:13.372Z,101333
2017-04-03T03:53:13.604Z,101325
2017-04-03T03:54:13.981Z,101332
2017-04-03T03:55:14.071Z,101333
2017-04-03T03:56:13.603Z,101336
2017-04-03T03:57:13.694Z,101337
2017-04-03T03:58:14.260Z,101339
2017-04-03T03:59:14.114Z,101341
2017-04-03T04:00:13.865Z,101341
2017-04-03T04:01:14.439Z,101342
2017-04-03T04:02:13.916Z,101343
2017-04-03T04:03:13.968Z,101343
2017-04-03T04:04:14.538Z,101335
2017-04-03T04:05:14.752Z,101335
2017-04-03T04:06:14.099Z,101337
2017-04-03T04:07:14.702Z,101344
2017-04-03T04:08:14.175Z,101343
2017-04-03T04:09:14.232Z,101346
2017-04-03T04:10:14.866Z,101352
2017-04-03T04:11:14.527Z,101347
2017-04-03T04:12:14.978Z,101351
2017-04-03T04:13:15.074Z,101344
2017-04-03T04:14:14.562Z,101345
2017-04-03T04:15:15.150Z,101346
2017-04-03T04:16:14.567Z,101352
2017-04-03T04:17:15.320Z,101354
2017-04-03T04:18:15.187Z,101350
2017-04-03T04:19:15.246Z,101350
2017-04-03T04:20:14.735Z,101354
2017-04-03T04:21:14.738Z,101355
2017-04-03T04:22:15.396Z,101361
2017-04-03T04:23:15.696Z,101358
2017-04-03T04:24:14.918Z,101360
2017-04-03T04:25:14.983Z,101357
2017-04-03T04:26:15.583Z,101357
2017-04-03T04:27:15.085Z,101356
2017-04-03T04:28:15.641Z,101357
2017-04-03T04:29:15.404Z,101357
2017-04-03T04:30:15.768Z,101354
2017-04-03T04:31:15.236Z,101357
2017-04-03T04:32:15.847Z,101362
2017-04-03T04:33:15.377Z,101361
2017-04-03T04:34:15.408Z,101362
2017-04-03T04:35:15.675Z,101360
2017-04-03T04:36:15.994Z,101357
2017-04-03T04:37:15.502Z,101359
2017-04-03T04:38:15.519Z,101363
2017-04-03T04:39:15.476Z,101363
2017-04-03T04:40:15.583Z,101358
2017-04-03T04:41:15.799Z,101358
2017-04-03T04:42:16.183Z,101357
2017-04-03T04:43:16.256Z,101358
2017-04-03T04:44:15.722Z,101357
2017-04-03T04:45:16.272Z,101357
2017-04-03T04:46:16.279Z,101356
2017-04-03T04:47:16.023Z,101359
2017-04-03T04:48:15.867Z,101356
2017-04-03T04:49:15.959Z,101357
2017-04-03T04:50:16.584Z,101358
2017-04-03T04:51:16.074Z,101360
2017-04-03T04:52:16.237Z,101362
2017-04-03T04:53:16.879Z,101360
2017-04-03T04:54:16.764Z,101359
2017-04-03T04:55:16.237Z,101363
2017-04-03T04:56:16.802Z,101358
2017-04-03T04:57:16.251Z,101359
2017-04-03T04:58:16.353Z,101362
2017-04-03T04:59:16.550Z,101367
2017-04-03T05:00:16.495Z,101366
2017-04-03T05:01:16.515Z,101366
2017-04-03T05:02:16.504Z,101367
2017-04-03T05:03:16.596Z,101373
2017-04-03T05:04:17.128Z,101376
2017-04-03T05:05:17.353Z,101373
2017-04-03T05:06:16.730Z,101377
2017-04-03T05:07:17.290Z,101380
2017-04-03T05:08:17.355Z,101377
2017-04-03T05:09:16.810Z,101373
2017-04-03T05:10:17.431Z,101378
2017-04-03T05:11:17.690Z,101378
2017-04-03T05:12:16.993Z,101380
2017-04-03T05:13:17.030Z,101381
2017-04-03T05:14:17.596Z,101385
2017-04-03T05:15:17.119Z,101386
2017-04-03T05:16:17.151Z,101385
2017-04-03T05:17:18.065Z,101387
2017-04-03T05:18:17.305Z,101387
2017-04-03T05:19:17.882Z,101388
2017-04-03T05:20:17.509Z,101385
2017-04-03T05:21:18.006Z,101392
2017-04-03T05:22:17.525Z,101391
2017-04-03T05:23:17.755Z,101389
2017-04-03T05:24:17.726Z,101391
2017-04-03T05:25:17.716Z,101397
2017-04-03T05:26:18.354Z,101398
2017-04-03T05:27:17.813Z,101397
2017-04-03T05:28:17.956Z,101396
2017-04-03T05:29:18.702Z,101403
2017-04-03T05:30:17.999Z,101402
2017-04-03T05:31:19.419Z,101409
2017-04-03T05:32:18.558Z,101406
2017-04-03T05:33:18.585Z,101404
2017-04-03T05:34:18.146Z,101406
2017-04-03T05:35:18.862Z,101407
2017-04-03T05:36:18.203Z,101408
2017-04-03T05:37:18.808Z,101409
2017-04-03T05:38:18.265Z,101407
2017-04-03T05:39:18.405Z,101407
2017-04-03T05:40:18.408Z,101408
2017-04-03T05:41:18.645Z,101409
2017-04-03T05:42:19.127Z,101410
2017-04-03T05:43:19.123Z,101414
2017-04-03T05:44:19.166Z,101414
2017-04-03T05:45:19.154Z,101410
2017-04-03T05:46:18.748Z,101414
2017-04-03T05:47:19.495Z,101420
2017-04-03T05:48:19.312Z,101419
2017-04-03T05:49:19.335Z,101429
2017-04-03T05:50:19.423Z,101427
2017-04-03T05:51:19.466Z,101422
2017-04-03T05:52:19.589Z,101421
2017-04-03T05:53:19.840Z,101427
2017-04-03T05:54:19.144Z,101420
2017-04-03T05:55:19.209Z,101424
2017-04-03T05:56:19.905Z,101424
2017-04-03T05:57:19.311Z,101432
2017-04-03T05:58:19.407Z,101431
2017-04-03T05:59:19.553Z,101435
2017-04-03T06:00:19.974Z,101431
2017-04-03T06:01:19.539Z,101440
2017-04-03T06:02:20.115Z,101440
2017-04-03T06:03:20.190Z,101447
2017-04-03T06:04:19.691Z,101449
2017-04-03T06:05:20.440Z,101441
2017-04-03T06:06:19.765Z,101447
2017-04-03T06:07:19.845Z,101444
2017-04-03T06:08:19.855Z,101448
2017-04-03T06:09:19.885Z,101449
2017-04-03T06:10:20.032Z,101452
2017-04-03T06:11:20.795Z,101457
2017-04-03T06:12:20.664Z,101454
2017-04-03T06:13:20.237Z,101450
2017-04-03T06:14:20.835Z,101450
2017-04-03T06:15:20.925Z,101451
2017-04-03T06:16:20.937Z,101455
2017-04-03T06:17:21.232Z,101453
2017-04-03T06:18:21.096Z,101457
2017-04-03T06:19:20.659Z,101458
2017-04-03T06:20:20.697Z,101459
2017-04-03T06:21:20.730Z,101461
2017-04-03T06:22:20.706Z,101458
2017-04-03T06:23:21.431Z,101459
2017-04-03T06:24:21.277Z,101454
2017-04-03T06:25:21.278Z,101456
2017-04-03T06:26:20.835Z,101457
2017-04-03T06:27:20.919Z,101449
2017-04-03T06:28:21.005Z,101457
2017-04-03T06:29:21.737Z,101460
2017-04-03T06:30:21.087Z,101457
2017-04-03T06:31:21.673Z,101463
2017-04-03T06:32:21.771Z,101462
2017-04-03T06:33:21.737Z,101465
2017-04-03T06:34:21.840Z,101468
2017-04-03T06:35:21.473Z,101465
2017-04-03T06:36:21.384Z,101467
2017-04-03T06:37:21.893Z,101464
2017-04-03T06:38:21.472Z,101463
2017-04-03T06:39:22.090Z,101464
2017-04-03T06:40:22.158Z,101466
2017-04-03T06:41:22.331Z,101463
2017-04-03T06:42:21.720Z,101465
2017-04-03T06:43:22.338Z,101461
2017-04-03T06:44:22.418Z,101465
2017-04-03T06:45:22.415Z,101467
2017-04-03T06:46:21.878Z,101465
2017-04-03T06:47:22.132Z,101467
2017-04-03T06:48:21.989Z,101472
2017-04-03T06:49:22.608Z,101469
2017-04-03T06:50:22.066Z,101469
2017-04-03T06:51:22.651Z,101471
2017-04-03T06:52:22.197Z,101472
2017-04-03T06:53:22.919Z,101470
2017-04-03T06:54:22.337Z,101469
2017-04-03T06:55:22.374Z,101471
2017-04-03T06:56:23.054Z,101472
2017-04-03T06:57:24.405Z,101476
2017-04-03T06:58:23.772Z,101470
2017-04-03T06:59:23.439Z,101473
2017-04-03T07:00:23.855Z,101476
2017-04-03T07:01:23.729Z,101478
2017-04-03T07:02:22.735Z,101474
2017-04-03T07:03:23.345Z,101477
2017-04-03T07:04:22.853Z,101477
2017-04-03T07:05:24.234Z,101474
2017-04-03T07:06:23.065Z,101480
2017-04-03T07:07:23.815Z,101480
2017-04-03T07:08:23.148Z,101480
2017-04-03T07:09:23.764Z,101475
2017-04-03T07:11:23.251Z,101478
2017-04-03T07:12:23.795Z,101478
2017-04-03T07:13:23.308Z,101480
2017-04-03T07:14:23.385Z,101479
2017-04-03T07:15:23.416Z,101476
2017-04-03T07:16:23.987Z,101474
2017-04-03T07:17:23.562Z,101481
2017-04-03T07:18:23.636Z,101483
2017-04-03T07:19:23.653Z,101482
2017-04-03T07:20:23.764Z,101478
2017-04-03T07:21:23.825Z,101484
2017-04-03T07:22:23.910Z,101482
2017-04-03T07:23:24.519Z,101477
2017-04-03T07:24:24.527Z,101486
2017-04-03T07:25:24.583Z,101484
2017-04-03T07:26:24.859Z,101484
2017-04-03T07:27:24.086Z,101485
2017-04-03T07:28:25.335Z,101485
2017-04-03T07:29:24.237Z,101485
2017-04-03T07:30:24.861Z,101483
2017-04-03T07:31:24.957Z,101483
2017-04-03T07:32:24.999Z,101488
2017-04-03T07:33:24.510Z,101484
2017-04-03T07:34:25.063Z,101481
2017-04-03T07:35:24.568Z,101482
2017-04-03T07:36:24.590Z,101486
2017-04-03T07:37:25.129Z,101484
2017-04-03T07:38:25.180Z,101486
2017-04-03T07:39:25.282Z,101487
2017-04-03T07:40:24.779Z,101483
2017-04-03T07:41:25.366Z,101488
2017-04-03T07:42:25.140Z,101492
2017-04-03T07:43:25.445Z,101489
2017-04-03T07:44:24.993Z,101490
2017-04-03T07:45:25.560Z,101486
2017-04-03T07:46:25.036Z,101491
2017-04-03T07:47:25.130Z,101493
2017-04-03T07:48:25.213Z,101491
2017-04-03T07:49:25.363Z,101489
2017-04-03T07:50:25.239Z,101487
2017-04-03T07:51:25.779Z,101491
2017-04-03T07:52:25.330Z,101494
2017-04-03T07:53:25.267Z,101493
2017-04-03T07:54:25.387Z,101494
2017-04-03T07:55:25.928Z,101495
2017-04-03T07:56:25.960Z,101495
2017-04-03T07:57:25.426Z,101499
2017-04-03T07:58:25.412Z,101497
2017-04-03T07:59:25.502Z,101496
2017-04-03T08:00:25.513Z,101495
2017-04-03T08:01:26.078Z,101496
2017-04-03T08:02:26.077Z,101489
2017-04-03T08:03:26.146Z,101496
2017-04-03T08:04:25.637Z,101493
2017-04-03T08:05:25.710Z,101494
2017-04-03T08:06:26.589Z,101490
2017-04-03T08:07:26.514Z,101491
2017-04-03T08:08:25.818Z,101492
2017-04-03T08:09:25.842Z,101491
2017-04-03T08:10:25.937Z,101491
2017-04-03T08:11:25.917Z,101491
2017-04-03T08:12:26.502Z,101486
2017-04-03T08:13:27.187Z,101484
2017-04-03T08:14:26.128Z,101489
2017-04-03T08:15:26.131Z,101491
2017-04-03T08:16:26.887Z,101491
2017-04-03T08:17:26.799Z,101493
2017-04-03T08:18:26.789Z,101497
2017-04-03T08:19:26.236Z,101493
2017-04-03T08:20:26.362Z,101493
2017-04-03T08:21:26.398Z,101497
2017-04-03T08:22:26.395Z,101490
2017-04-03T08:23:26.461Z,101491
2017-04-03T08:24:26.584Z,101496
2017-04-03T08:25:27.159Z,101499
2017-04-03T08:26:27.213Z,101505
2017-04-03T08:27:27.223Z,101498
2017-04-03T08:28:26.726Z,101500
2017-04-03T08:29:26.858Z,101502
2017-04-03T08:30:27.413Z,101501
2017-04-03T08:31:27.589Z,101498
2017-04-03T08:32:27.514Z,101498
2017-04-03T08:33:27.564Z,101501
2017-04-03T08:34:27.685Z,101498
2017-04-03T08:35:27.203Z,101495
2017-04-03T08:36:27.809Z,101494
2017-04-03T08:37:27.289Z,101499
2017-04-03T08:38:27.387Z,101501
2017-04-03T08:39:28.112Z,101500
2017-04-03T08:40:27.449Z,101499
2017-04-03T08:41:28.450Z,101498
2017-04-03T08:42:27.584Z,101498
2017-04-03T08:43:27.639Z,101497
2017-04-03T08:44:28.234Z,101499
2017-04-03T08:45:27.768Z,101496
2017-04-03T08:46:27.769Z,101496
2017-04-03T08:47:28.434Z,101499
2017-04-03T08:48:28.423Z,101502
2017-04-03T08:49:27.889Z,101502
2017-04-03T08:50:28.513Z,101505
2017-04-03T08:51:28.041Z,101509
2017-04-03T08:52:28.553Z,101505
2017-04-03T08:53:28.558Z,101508
2017-04-03T08:54:28.630Z,101510
2017-04-03T08:55:28.151Z,101509
2017-04-03T08:56:28.253Z,101505
2017-04-03T08:57:28.276Z,101511
2017-04-03T08:58:28.274Z,101511
2017-04-03T08:59:28.360Z,101511
2017-04-03T09:00:28.358Z,101515
2017-04-03T09:01:28.614Z,101518
2017-04-03T09:02:29.024Z,101518
2017-04-03T09:03:28.559Z,101512
2017-04-03T09:04:29.613Z,101519
2017-04-03T09:05:29.252Z,101516
2017-04-03T09:06:28.772Z,101520
2017-04-03T09:07:29.318Z,101520
2017-04-03T09:08:29.414Z,101522
2017-04-03T09:09:29.288Z,101519
2017-04-03T09:10:30.617Z,101523
2017-04-03T09:11:29.991Z,101517
2017-04-03T09:12:30.350Z,101520
2017-04-03T09:13:29.876Z,101520
2017-04-03T09:14:29.207Z,101525
2017-04-03T09:15:29.230Z,101523
2017-04-03T09:16:29.846Z,101523
2017-04-03T09:17:30.025Z,101519
2017-04-03T09:18:29.441Z,101524
2017-04-03T09:19:29.435Z,101524
2017-04-03T09:20:29.990Z,101525
2017-04-03T09:21:30.047Z,101523
2017-04-03T09:22:30.037Z,101525
2017-04-03T09:23:30.366Z,101526
2017-04-03T09:24:30.153Z,101527
2017-04-03T09:25:30.279Z,101527
2017-04-03T09:26:29.745Z,101527
2017-04-03T09:27:29.671Z,101532
2017-04-03T09:28:30.260Z,101528
2017-04-03T09:29:31.598Z,101535
2017-04-03T09:30:30.858Z,101530
2017-04-03T09:31:29.948Z,101530
2017-04-03T09:32:30.575Z,101535
2017-04-03T09:33:30.612Z,101529
2017-04-03T09:34:30.666Z,101533
2017-04-03T09:35:30.798Z,101533
2017-04-03T09:36:31.271Z,101527
2017-04-03T09:37:30.849Z,101535
2017-04-03T09:38:30.895Z,101533
2017-04-03T09:39:31.232Z,101531
2017-04-03T09:40:30.506Z,101530
2017-04-03T09:41:31.752Z,101535
2017-04-03T09:42:30.601Z,101501
2017-04-03T09:43:31.277Z,101534
2017-04-03T09:44:30.838Z,101535
2017-04-03T09:45:31.580Z,101533
2017-04-03T09:46:30.851Z,101537
2017-04-03T09:47:31.694Z,101538
2017-04-03T09:48:30.972Z,101533
2017-04-03T09:49:31.045Z,101530
2017-04-03T09:50:31.635Z,101529
2017-04-03T09:51:33.257Z,101530
2017-04-03T09:52:31.792Z,101530
2017-04-03T09:53:32.059Z,101533
2017-04-03T09:54:31.941Z,101531
2017-04-03T09:55:31.962Z,101530
2017-04-03T09:56:31.437Z,101532
2017-04-03T09:57:31.611Z,101534
2017-04-03T09:58:32.154Z,101527
2017-04-03T09:59:32.236Z,101531
2017-04-03T10:00:32.259Z,101533
2017-04-03T10:01:32.344Z,101532
2017-04-03T10:02:32.610Z,101528
2017-04-03T10:03:33.117Z,101534
2017-04-03T10:04:32.633Z,101528
2017-04-03T10:05:31.903Z,101525
2017-04-03T10:06:32.515Z,101529
2017-04-03T10:07:33.309Z,101524
2017-04-03T10:08:32.168Z,101523
2017-04-03T10:09:32.796Z,101522
2017-04-03T10:10:32.753Z,101518
2017-04-03T10:11:32.233Z,101526
2017-04-03T10:12:33.880Z,101523
2017-04-03T10:13:32.365Z,101523
2017-04-03T10:14:32.433Z,101523
2017-04-03T10:15:33.119Z,101519
2017-04-03T10:16:33.054Z,101520
2017-04-03T10:17:32.595Z,101522
2017-04-03T10:18:33.150Z,101519
2017-04-03T10:19:33.167Z,101523
2017-04-03T10:20:33.480Z,101523
2017-04-03T10:21:33.847Z,101525
2017-04-03T10:22:34.554Z,101527
2017-04-03T10:23:33.248Z,101519
2017-04-03T10:24:33.437Z,101524
2017-04-03T10:25:33.481Z,101524
2017-04-03T10:26:33.557Z,101528
2017-04-03T10:27:33.597Z,101517
2017-04-03T10:28:33.122Z,101524
2017-04-03T10:29:35.389Z,101524
2017-04-03T10:30:33.800Z,101523
2017-04-03T10:31:33.305Z,101517
2017-04-03T10:32:33.289Z,101518
2017-04-03T10:33:34.544Z,101520
2017-04-03T10:34:33.852Z,101521
2017-04-03T10:35:34.742Z,101523
2017-04-03T10:36:33.479Z,101519
2017-04-03T10:37:34.035Z,101516
2017-04-03T10:38:34.895Z,101524
2017-04-03T10:39:34.257Z,101524
2017-04-03T10:40:36.860Z,101525
2017-04-03T10:41:34.878Z,101520
2017-04-03T10:42:33.628Z,101521
2017-04-03T10:43:34.265Z,101519
2017-04-03T10:44:35.280Z,101520
2017-04-03T10:45:34.344Z,101518
2017-04-03T10:46:34.422Z,101510
2017-04-03T10:47:33.960Z,101513
2017-04-03T10:48:34.510Z,101513
2017-04-03T10:49:34.058Z,101511
2017-04-03T10:50:34.766Z,101505
2017-04-03T10:51:34.046Z,101510
2017-04-03T10:52:34.114Z,101513
2017-04-03T10:53:34.668Z,101514
2017-04-03T10:54:34.098Z,101514
2017-04-03T10:55:34.826Z,101513
2017-04-03T10:56:34.326Z,101507
2017-04-03T10:57:34.356Z,101511
2017-04-03T10:58:34.493Z,101506
2017-04-03T10:59:35.579Z,101506
2017-04-03T11:00:35.584Z,101504
2017-04-03T11:01:35.110Z,101509
2017-04-03T11:02:35.739Z,101503
2017-04-03T11:03:35.196Z,101503
2017-04-03T11:04:34.739Z,101507
2017-04-03T11:05:34.830Z,101501
2017-04-03T11:06:34.820Z,101497
2017-04-03T11:07:35.434Z,101491
2017-04-03T11:08:34.929Z,101494
2017-04-03T11:09:35.537Z,101496
2017-04-03T11:10:35.614Z,101493
2017-04-03T11:11:35.656Z,101495
2017-04-03T11:12:35.642Z,101494
2017-04-03T11:13:35.176Z,101484
2017-04-03T11:14:35.195Z,101490
2017-04-03T11:15:36.392Z,101487
2017-04-03T11:16:35.851Z,101493
2017-04-03T11:17:35.297Z,101490
2017-04-03T11:18:35.885Z,101485
2017-04-03T11:19:35.910Z,101481
2017-04-03T11:20:36.541Z,101478
2017-04-03T11:21:36.739Z,101482
2017-04-03T11:22:36.134Z,101490
2017-04-03T11:23:37.054Z,101490
2017-04-03T11:24:35.629Z,101487
2017-04-03T11:25:35.573Z,101493
2017-04-03T11:26:35.592Z,101488
2017-04-03T11:27:35.715Z,101488
2017-04-03T11:28:35.711Z,101484
2017-04-03T11:29:35.752Z,101483
2017-04-03T11:30:36.408Z,101479
2017-04-03T11:31:35.823Z,101481
2017-04-03T11:32:35.886Z,101484
2017-04-03T11:33:37.111Z,101486
2017-04-03T11:34:36.504Z,101483
2017-04-03T11:35:36.589Z,101482
2017-04-03T11:36:36.660Z,101482
2017-04-03T11:37:36.723Z,101483
2017-04-03T11:38:36.251Z,101479
2017-04-03T11:39:36.812Z,101485
2017-04-03T11:40:38.158Z,101480
2017-04-03T11:41:37.560Z,101475
2017-04-03T11:42:36.947Z,101474
2017-04-03T11:43:37.083Z,101472
2017-04-03T11:44:37.676Z,101469
2017-04-03T11:45:37.363Z,101473
2017-04-03T11:46:37.213Z,101463
2017-04-03T11:47:37.198Z,101470
2017-04-03T11:48:37.227Z,101468
2017-04-03T11:49:36.712Z,101472
2017-04-03T11:50:37.376Z,101468
2017-04-03T11:51:37.982Z,101468
2017-04-03T11:52:36.888Z,101470
2017-04-03T11:53:37.927Z,101465
2017-04-03T11:54:37.595Z,101469
2017-04-03T11:55:37.782Z,101459
2017-04-03T11:56:37.179Z,101463
2017-04-03T11:57:37.801Z,101460
2017-04-03T11:58:37.290Z,101462
2017-04-03T11:59:37.331Z,101454
2017-04-03T12:00:37.317Z,101456
2017-04-03T12:01:37.404Z,101462
2017-04-03T12:02:37.481Z,101460
2017-04-03T12:03:43.281Z,101458
2017-04-03T12:04:38.057Z,101459
2017-04-03T12:05:38.061Z,101459
2017-04-03T12:06:38.228Z,101457
2017-04-03T12:07:39.051Z,101458
2017-04-03T12:08:37.718Z,101450
2017-04-03T12:09:37.799Z,101450
2017-04-03T12:10:38.568Z,101449
2017-04-03T12:11:38.651Z,101458
2017-04-03T12:12:37.976Z,101458
2017-04-03T12:13:39.548Z,101456
2017-04-03T12:14:38.527Z,101456
2017-04-03T12:15:38.577Z,101458
2017-04-03T12:16:38.102Z,101457
2017-04-03T12:17:38.144Z,101451
2017-04-03T12:18:38.885Z,101453
2017-04-03T12:19:38.743Z,101450
2017-04-03T12:20:38.312Z,101454
2017-04-03T12:21:38.381Z,101451
2017-04-03T12:22:40.299Z,101452
2017-04-03T12:23:38.582Z,101452
2017-04-03T12:24:39.101Z,101451
2017-04-03T12:25:39.159Z,101450
2017-04-03T12:26:38.663Z,101446
2017-04-03T12:27:38.695Z,101444
2017-04-03T12:28:39.283Z,101445
2017-04-03T12:29:39.047Z,101447
2017-04-03T12:30:38.900Z,101446